sensor_id;sensor_type;location;lat;lon;timestamp;pressure;altitude;pressure_sealevel;temperature;humidity
52719;BME280;38616;42.140;24.760;2023-11-18T00:01:48;98614.47;;;11.34;73.53
52719;BME280;38616;42.140;24.760;2023-11-18T00:04:13;98613.41;;;11.44;72.72
52719;BME280;38616;42.140;24.760;2023-11-18T00:06:44;98611.56;;;11.31;73.05
52719;BME280;38616;42.140;24.760;2023-11-18T00:09:13;98621.94;;;11.29;73.50
52719;BME280;38616;42.140;24.760;2023-11-18T00:11:39;98614.22;;;11.22;73.41
52719;BME280;38616;42.140;24.760;2023-11-18T00:14:05;98617.16;;;10.89;73.06
52719;BME280;38616;42.140;24.760;2023-11-18T00:16:30;98622.16;;;10.59;74.33
52719;BME280;38616;42.140;24.760;2023-11-18T00:18:56;98617.22;;;10.47;75.09
52719;BME280;38616;42.140;24.760;2023-11-18T00:21:24;98621.75;;;10.52;74.58
52719;BME280;38616;42.140;24.760;2023-11-18T00:23:50;98640.97;;;10.41;74.85
52719;BME280;38616;42.140;24.760;2023-11-18T00:26:16;98629.28;;;10.27;75.57
52719;BME280;38616;42.140;24.760;2023-11-18T00:28:41;98626.97;;;10.48;74.63
52719;BME280;38616;42.140;24.760;2023-11-18T00:31:07;98624.66;;;10.55;74.86
52719;BME280;38616;42.140;24.760;2023-11-18T00:33:34;98619.44;;;10.45;74.94
52719;BME280;38616;42.140;24.760;2023-11-18T00:35:59;98623.06;;;10.54;74.62
52719;BME280;38616;42.140;24.760;2023-11-18T00:38:26;98619.97;;;10.84;73.82
52719;BME280;38616;42.140;24.760;2023-11-18T00:40:51;98620.31;;;10.68;73.52
52719;BME280;38616;42.140;24.760;2023-11-18T00:43:17;98615.28;;;10.61;73.60
52719;BME280;38616;42.140;24.760;2023-11-18T00:45:42;98610.53;;;10.81;73.98
52719;BME280;38616;42.140;24.760;2023-11-18T00:48:09;98615.53;;;10.88;73.34
52719;BME280;38616;42.140;24.760;2023-11-18T00:50:35;98624.78;;;10.87;73.20
52719;BME280;38616;42.140;24.760;2023-11-18T00:53:00;98633.78;;;11.10;71.98
52719;BME280;38616;42.140;24.760;2023-11-18T00:55:32;98617.47;;;10.87;72.38
52719;BME280;38616;42.140;24.760;2023-11-18T00:57:58;98618.19;;;10.65;73.25
52719;BME280;38616;42.140;24.760;2023-11-18T01:00:24;98638.31;;;10.78;74.02
52719;BME280;38616;42.140;24.760;2023-11-18T01:02:52;98637.38;;;10.97;73.20
52719;BME280;38616;42.140;24.760;2023-11-18T01:05:19;98634.28;;;11.12;72.52
52719;BME280;38616;42.140;24.760;2023-11-18T01:07:45;98634.75;;;10.91;73.49
52719;BME280;38616;42.140;24.760;2023-11-18T01:10:12;98638.47;;;10.96;73.79
52719;BME280;38616;42.140;24.760;2023-11-18T01:12:39;98644.31;;;10.89;73.93
52719;BME280;38616;42.140;24.760;2023-11-18T01:15:05;98642.13;;;10.77;73.77
52719;BME280;38616;42.140;24.760;2023-11-18T01:17:30;98657.94;;;10.75;74.52
52719;BME280;38616;42.140;24.760;2023-11-18T01:19:57;98649.41;;;10.68;73.55
52719;BME280;38616;42.140;24.760;2023-11-18T01:22:24;98655.00;;;10.71;73.70
52719;BME280;38616;42.140;24.760;2023-11-18T01:24:54;98658.53;;;10.72;72.45
52719;BME280;38616;42.140;24.760;2023-11-18T01:27:21;98671.47;;;10.89;71.43
52719;BME280;38616;42.140;24.760;2023-11-18T01:29:48;98674.63;;;10.68;71.74
52719;BME280;38616;42.140;24.760;2023-11-18T01:32:13;98660.34;;;10.76;72.22
52719;BME280;38616;42.140;24.760;2023-11-18T01:34:39;98679.97;;;10.59;71.62
52719;BME280;38616;42.140;24.760;2023-11-18T01:37:08;98675.16;;;10.42;71.29
52719;BME280;38616;42.140;24.760;2023-11-18T01:39:36;98678.03;;;10.18;71.85
52719;BME280;38616;42.140;24.760;2023-11-18T01:42:03;98675.53;;;10.22;71.43
52719;BME280;38616;42.140;24.760;2023-11-18T01:44:30;98671.19;;;10.07;71.97
52719;BME280;38616;42.140;24.760;2023-11-18T01:46:57;98675.94;;;10.29;71.56
52719;BME280;38616;42.140;24.760;2023-11-18T01:49:26;98672.31;;;10.19;71.79
52719;BME280;38616;42.140;24.760;2023-11-18T01:51:57;98669.22;;;10.54;70.61
52719;BME280;38616;42.140;24.760;2023-11-18T01:54:25;98683.38;;;10.65;69.59
52719;BME280;38616;42.140;24.760;2023-11-18T01:56:53;98683.59;;;10.41;68.44
52719;BME280;38616;42.140;24.760;2023-11-18T01:59:20;98667.84;;;9.96;70.20
52719;BME280;38616;42.140;24.760;2023-11-18T02:01:51;98675.00;;;10.05;70.39
52719;BME280;38616;42.140;24.760;2023-11-18T02:04:19;98680.22;;;10.02;69.72
52719;BME280;38616;42.140;24.760;2023-11-18T02:06:48;98673.75;;;9.84;71.27
52719;BME280;38616;42.140;24.760;2023-11-18T02:09:15;98679.53;;;10.10;70.26
52719;BME280;38616;42.140;24.760;2023-11-18T02:11:53;98684.34;;;10.13;69.42
52719;BME280;38616;42.140;24.760;2023-11-18T02:14:20;98679.97;;;9.84;69.52
52719;BME280;38616;42.140;24.760;2023-11-18T02:16:49;98681.88;;;9.70;70.84
52719;BME280;38616;42.140;24.760;2023-11-18T02:19:23;98685.81;;;9.91;70.92
52719;BME280;38616;42.140;24.760;2023-11-18T02:21:50;98688.28;;;10.21;70.63
52719;BME280;38616;42.140;24.760;2023-11-18T02:24:26;98694.03;;;10.19;70.10
52719;BME280;38616;42.140;24.760;2023-11-18T02:26:56;98681.56;;;10.18;69.74
52719;BME280;38616;42.140;24.760;2023-11-18T02:29:22;98686.06;;;10.23;70.32
52719;BME280;38616;42.140;24.760;2023-11-18T02:31:52;98702.66;;;10.22;69.55
52719;BME280;38616;42.140;24.760;2023-11-18T02:34:22;98700.31;;;10.01;69.65
52719;BME280;38616;42.140;24.760;2023-11-18T02:36:51;98698.44;;;10.29;69.76
52719;BME280;38616;42.140;24.760;2023-11-18T02:39:20;98704.66;;;10.16;70.26
52719;BME280;38616;42.140;24.760;2023-11-18T02:41:48;98699.47;;;9.86;69.96
52719;BME280;38616;42.140;24.760;2023-11-18T02:44:17;98708.13;;;9.88;70.23
52719;BME280;38616;42.140;24.760;2023-11-18T02:46:45;98706.66;;;10.10;70.15
52719;BME280;38616;42.140;24.760;2023-11-18T02:49:10;98712.41;;;10.09;69.58
52719;BME280;38616;42.140;24.760;2023-11-18T02:51:37;98704.63;;;10.02;69.81
52719;BME280;38616;42.140;24.760;2023-11-18T02:54:07;98701.41;;;10.00;70.59
52719;BME280;38616;42.140;24.760;2023-11-18T02:56:37;98699.69;;;9.57;71.04
52719;BME280;38616;42.140;24.760;2023-11-18T02:59:05;98700.44;;;9.63;72.13
52719;BME280;38616;42.140;24.760;2023-11-18T03:01:33;98696.78;;;9.53;71.39
52719;BME280;38616;42.140;24.760;2023-11-18T03:04:01;98702.41;;;9.57;71.50
52719;BME280;38616;42.140;24.760;2023-11-18T03:06:27;98698.75;;;9.28;72.18
52719;BME280;38616;42.140;24.760;2023-11-18T03:08:53;98696.50;;;9.36;71.84
52719;BME280;38616;42.140;24.760;2023-11-18T03:11:21;98691.00;;;9.41;72.04
52719;BME280;38616;42.140;24.760;2023-11-18T03:13:49;98684.91;;;9.49;71.50
52719;BME280;38616;42.140;24.760;2023-11-18T03:16:15;98690.13;;;9.26;71.41
52719;BME280;38616;42.140;24.760;2023-11-18T03:18:42;98682.66;;;9.18;71.71
52719;BME280;38616;42.140;24.760;2023-11-18T03:21:14;98697.16;;;9.27;72.33
52719;BME280;38616;42.140;24.760;2023-11-18T03:23:41;98703.31;;;9.14;72.12
52719;BME280;38616;42.140;24.760;2023-11-18T03:26:08;98692.53;;;9.28;71.93
52719;BME280;38616;42.140;24.760;2023-11-18T03:28:34;98693.63;;;9.08;71.54
52719;BME280;38616;42.140;24.760;2023-11-18T03:31:04;98697.44;;;9.07;71.36
52719;BME280;38616;42.140;24.760;2023-11-18T03:33:30;98686.66;;;8.82;71.68
52719;BME280;38616;42.140;24.760;2023-11-18T03:35:55;98675.47;;;8.89;71.30
52719;BME280;38616;42.140;24.760;2023-11-18T03:38:21;98694.75;;;8.63;70.48
52719;BME280;38616;42.140;24.760;2023-11-18T03:40:47;98673.91;;;8.64;70.57
52719;BME280;38616;42.140;24.760;2023-11-18T03:43:13;98708.34;;;8.34;70.55
52719;BME280;38616;42.140;24.760;2023-11-18T03:45:42;98711.28;;;8.62;70.59
52719;BME280;38616;42.140;24.760;2023-11-18T03:48:08;98718.56;;;8.66;69.34
52719;BME280;38616;42.140;24.760;2023-11-18T03:50:36;98706.91;;;8.66;68.70
52719;BME280;38616;42.140;24.760;2023-11-18T03:53:02;98715.78;;;8.42;68.59
52719;BME280;38616;42.140;24.760;2023-11-18T03:55:28;98722.03;;;8.42;69.42
52719;BME280;38616;42.140;24.760;2023-11-18T03:57:54;98719.19;;;8.58;68.80
52719;BME280;38616;42.140;24.760;2023-11-18T04:00:20;98707.78;;;8.61;67.87
52719;BME280;38616;42.140;24.760;2023-11-18T04:02:46;98701.47;;;8.66;67.79
52719;BME280;38616;42.140;24.760;2023-11-18T04:05:12;98692.22;;;8.72;66.96
52719;BME280;38616;42.140;24.760;2023-11-18T04:07:38;98690.38;;;8.67;66.69
52719;BME280;38616;42.140;24.760;2023-11-18T04:10:07;98700.63;;;8.70;66.79
52719;BME280;38616;42.140;24.760;2023-11-18T04:12:35;98697.06;;;8.51;66.27
52719;BME280;38616;42.140;24.760;2023-11-18T04:15:01;98697.63;;;8.23;66.49
52719;BME280;38616;42.140;24.760;2023-11-18T04:17:26;98690.22;;;8.29;67.09
52719;BME280;38616;42.140;24.760;2023-11-18T04:19:54;98703.44;;;8.06;67.02
52719;BME280;38616;42.140;24.760;2023-11-18T04:22:23;98703.66;;;8.15;67.42
52719;BME280;38616;42.140;24.760;2023-11-18T04:24:49;98676.06;;;8.13;66.52
52719;BME280;38616;42.140;24.760;2023-11-18T04:27:15;98679.97;;;8.26;66.06
52719;BME280;38616;42.140;24.760;2023-11-18T04:29:42;98706.53;;;7.94;66.69
52719;BME280;38616;42.140;24.760;2023-11-18T04:32:08;98693.19;;;8.03;67.33
52719;BME280;38616;42.140;24.760;2023-11-18T04:34:39;98720.28;;;7.98;66.30
52719;BME280;38616;42.140;24.760;2023-11-18T04:37:04;98708.72;;;7.92;66.35
52719;BME280;38616;42.140;24.760;2023-11-18T04:39:34;98695.69;;;8.24;65.60
52719;BME280;38616;42.140;24.760;2023-11-18T04:42:00;98698.19;;;8.20;63.00
52719;BME280;38616;42.140;24.760;2023-11-18T04:44:27;98698.34;;;8.05;64.30
52719;BME280;38616;42.140;24.760;2023-11-18T04:46:53;98704.66;;;7.95;64.06
52719;BME280;38616;42.140;24.760;2023-11-18T04:49:18;98698.00;;;8.11;63.58
52719;BME280;38616;42.140;24.760;2023-11-18T04:51:44;98740.97;;;8.18;63.20
52719;BME280;38616;42.140;24.760;2023-11-18T04:54:10;98736.47;;;8.03;63.51
52719;BME280;38616;42.140;24.760;2023-11-18T04:56:36;98725.34;;;8.10;62.23
52719;BME280;38616;42.140;24.760;2023-11-18T04:59:03;98738.69;;;7.96;62.64
52719;BME280;38616;42.140;24.760;2023-11-18T05:01:30;98732.69;;;8.04;63.03
52719;BME280;38616;42.140;24.760;2023-11-18T05:03:56;98730.19;;;7.83;62.36
52719;BME280;38616;42.140;24.760;2023-11-18T05:06:23;98720.44;;;7.82;62.68
52719;BME280;38616;42.140;24.760;2023-11-18T05:08:48;98709.25;;;7.94;62.35
52719;BME280;38616;42.140;24.760;2023-11-18T05:11:15;98723.72;;;7.79;62.32
52719;BME280;38616;42.140;24.760;2023-11-18T05:13:41;98717.88;;;7.67;62.10
52719;BME280;38616;42.140;24.760;2023-11-18T05:16:07;98739.13;;;7.39;61.90
52719;BME280;38616;42.140;24.760;2023-11-18T05:18:35;98713.50;;;7.36;62.58
52719;BME280;38616;42.140;24.760;2023-11-18T05:21:02;98730.56;;;7.27;62.39
52719;BME280;38616;42.140;24.760;2023-11-18T05:23:31;98731.41;;;7.62;62.15
52719;BME280;38616;42.140;24.760;2023-11-18T05:26:01;98730.31;;;7.23;61.34
52719;BME280;38616;42.140;24.760;2023-11-18T05:28:33;98699.13;;;7.41;61.74
52719;BME280;38616;42.140;24.760;2023-11-18T05:30:59;98710.56;;;7.28;61.06
52719;BME280;38616;42.140;24.760;2023-11-18T05:33:26;98693.34;;;7.13;60.47
52719;BME280;38616;42.140;24.760;2023-11-18T05:35:54;98730.56;;;7.27;61.30
52719;BME280;38616;42.140;24.760;2023-11-18T05:38:20;98712.72;;;7.31;60.45
52719;BME280;38616;42.140;24.760;2023-11-18T05:40:50;98731.56;;;7.41;60.20
52719;BME280;38616;42.140;24.760;2023-11-18T05:43:24;98734.94;;;7.57;59.68
52719;BME280;38616;42.140;24.760;2023-11-18T05:45:55;98743.47;;;7.35;60.69
52719;BME280;38616;42.140;24.760;2023-11-18T05:48:44;98745.41;;;7.29;61.48
52719;BME280;38616;42.140;24.760;2023-11-18T05:51:10;98764.34;;;7.24;60.53
52719;BME280;38616;42.140;24.760;2023-11-18T05:53:42;98772.97;;;6.65;60.47
52719;BME280;38616;42.140;24.760;2023-11-18T05:56:14;98788.66;;;6.43;61.21
52719;BME280;38616;42.140;24.760;2023-11-18T05:58:44;98763.06;;;6.30;62.16
52719;BME280;38616;42.140;24.760;2023-11-18T06:01:11;98758.50;;;6.15;63.36
52719;BME280;38616;42.140;24.760;2023-11-18T06:03:38;98744.69;;;6.53;62.19
52719;BME280;38616;42.140;24.760;2023-11-18T06:06:08;98741.88;;;6.78;61.07
52719;BME280;38616;42.140;24.760;2023-11-18T06:08:35;98766.00;;;6.44;61.39
52719;BME280;38616;42.140;24.760;2023-11-18T06:11:01;98742.28;;;6.35;61.61
52719;BME280;38616;42.140;24.760;2023-11-18T06:13:41;98802.69;;;6.55;61.71
52719;BME280;38616;42.140;24.760;2023-11-18T06:16:17;98795.31;;;6.82;61.08
52719;BME280;38616;42.140;24.760;2023-11-18T06:18:48;98790.66;;;7.03;59.88
52719;BME280;38616;42.140;24.760;2023-11-18T06:21:16;98782.34;;;6.89;59.16
52719;BME280;38616;42.140;24.760;2023-11-18T06:23:42;98791.69;;;7.07;59.16
52719;BME280;38616;42.140;24.760;2023-11-18T06:26:08;98786.78;;;7.19;58.52
52719;BME280;38616;42.140;24.760;2023-11-18T06:28:41;98770.34;;;7.16;57.82
52719;BME280;38616;42.140;24.760;2023-11-18T06:31:07;98792.28;;;7.04;57.98
52719;BME280;38616;42.140;24.760;2023-11-18T06:33:41;98785.59;;;6.86;58.32
52719;BME280;38616;42.140;24.760;2023-11-18T06:38:47;98798.03;;;6.76;58.11
52719;BME280;38616;42.140;24.760;2023-11-18T06:41:15;98786.97;;;6.83;57.45
52719;BME280;38616;42.140;24.760;2023-11-18T06:43:43;98780.59;;;6.27;58.44
52719;BME280;38616;42.140;24.760;2023-11-18T06:46:24;98781.72;;;6.00;58.70
52719;BME280;38616;42.140;24.760;2023-11-18T06:48:50;98779.50;;;6.33;59.97
52719;BME280;38616;42.140;24.760;2023-11-18T06:51:20;98793.16;;;6.78;58.26
52719;BME280;38616;42.140;24.760;2023-11-18T06:53:46;98774.09;;;6.49;57.24
52719;BME280;38616;42.140;24.760;2023-11-18T06:56:12;98810.84;;;6.14;57.58
52719;BME280;38616;42.140;24.760;2023-11-18T06:58:38;98789.75;;;5.69;58.78
52719;BME280;38616;42.140;24.760;2023-11-18T07:01:05;98797.31;;;5.93;59.97
52719;BME280;38616;42.140;24.760;2023-11-18T07:03:31;98825.88;;;6.56;57.74
52719;BME280;38616;42.140;24.760;2023-11-18T07:05:57;98826.88;;;6.91;56.27
52719;BME280;38616;42.140;24.760;2023-11-18T07:08:22;98820.09;;;6.99;56.27
52719;BME280;38616;42.140;24.760;2023-11-18T07:10:48;98817.06;;;7.11;54.29
52719;BME280;38616;42.140;24.760;2023-11-18T07:13:14;98804.47;;;6.86;55.09
52719;BME280;38616;42.140;24.760;2023-11-18T07:15:39;98796.69;;;6.79;55.25
52719;BME280;38616;42.140;24.760;2023-11-18T07:18:05;98771.59;;;6.73;55.08
52719;BME280;38616;42.140;24.760;2023-11-18T07:20:32;98798.25;;;7.01;54.80
52719;BME280;38616;42.140;24.760;2023-11-18T07:22:58;98793.06;;;7.09;54.75
52719;BME280;38616;42.140;24.760;2023-11-18T07:25:23;98785.84;;;6.94;54.64
52719;BME280;38616;42.140;24.760;2023-11-18T07:27:48;98788.75;;;7.08;54.91
52719;BME280;38616;42.140;24.760;2023-11-18T07:30:14;98774.38;;;7.18;54.67
52719;BME280;38616;42.140;24.760;2023-11-18T07:32:40;98796.75;;;6.48;54.87
52719;BME280;38616;42.140;24.760;2023-11-18T07:35:05;98789.22;;;6.34;56.51
52719;BME280;38616;42.140;24.760;2023-11-18T07:37:35;98787.06;;;6.21;55.94
52719;BME280;38616;42.140;24.760;2023-11-18T07:40:03;98778.13;;;6.62;56.42
52719;BME280;38616;42.140;24.760;2023-11-18T07:42:31;98776.13;;;6.93;54.18
52719;BME280;38616;42.140;24.760;2023-11-18T07:45:00;98793.94;;;6.94;53.49
52719;BME280;38616;42.140;24.760;2023-11-18T07:47:29;98763.16;;;6.90;54.16
52719;BME280;38616;42.140;24.760;2023-11-18T07:49:57;98798.81;;;6.92;53.37
52719;BME280;38616;42.140;24.760;2023-11-18T07:52:25;98768.00;;;6.99;52.92
52719;BME280;38616;42.140;24.760;2023-11-18T07:54:52;98770.72;;;6.93;52.88
52719;BME280;38616;42.140;24.760;2023-11-18T07:57:18;98782.59;;;6.92;53.03
52719;BME280;38616;42.140;24.760;2023-11-18T07:59:43;98775.25;;;7.03;53.59
52719;BME280;38616;42.140;24.760;2023-11-18T08:02:09;98777.63;;;7.15;51.96
52719;BME280;38616;42.140;24.760;2023-11-18T08:04:36;98765.03;;;6.90;52.52
52719;BME280;38616;42.140;24.760;2023-11-18T08:07:02;98772.88;;;6.91;53.02
52719;BME280;38616;42.140;24.760;2023-11-18T08:09:31;98760.53;;;6.75;53.20
52719;BME280;38616;42.140;24.760;2023-11-18T08:11:57;98783.28;;;6.32;54.77
52719;BME280;38616;42.140;24.760;2023-11-18T08:14:24;98785.69;;;6.60;53.82
52719;BME280;38616;42.140;24.760;2023-11-18T08:16:49;98766.53;;;6.46;54.07
52719;BME280;38616;42.140;24.760;2023-11-18T08:19:16;98795.78;;;6.99;52.67
52719;BME280;38616;42.140;24.760;2023-11-18T08:21:42;98802.25;;;7.03;51.92
52719;BME280;38616;42.140;24.760;2023-11-18T08:24:08;98807.91;;;7.07;52.45
52719;BME280;38616;42.140;24.760;2023-11-18T08:26:36;98802.47;;;7.17;51.95
52719;BME280;38616;42.140;24.760;2023-11-18T08:29:01;98792.75;;;7.16;51.63
52719;BME280;38616;42.140;24.760;2023-11-18T08:31:27;98785.50;;;7.06;51.89
52719;BME280;38616;42.140;24.760;2023-11-18T08:33:52;98775.81;;;7.00;51.90
52719;BME280;38616;42.140;24.760;2023-11-18T08:36:20;98767.72;;;6.95;52.11
52719;BME280;38616;42.140;24.760;2023-11-18T08:38:48;98780.34;;;7.10;52.13
52719;BME280;38616;42.140;24.760;2023-11-18T08:41:13;98791.66;;;7.17;51.92
52719;BME280;38616;42.140;24.760;2023-11-18T08:43:39;98786.53;;;7.21;51.26
52719;BME280;38616;42.140;24.760;2023-11-18T08:46:06;98787.81;;;7.34;52.14
52719;BME280;38616;42.140;24.760;2023-11-18T08:48:33;98791.09;;;7.20;51.79
52719;BME280;38616;42.140;24.760;2023-11-18T08:50:59;98828.34;;;7.34;51.80
52719;BME280;38616;42.140;24.760;2023-11-18T08:53:27;98812.56;;;7.51;51.01
52719;BME280;38616;42.140;24.760;2023-11-18T08:55:53;98771.88;;;7.32;51.50
52719;BME280;38616;42.140;24.760;2023-11-18T08:58:22;98784.53;;;7.37;50.66
52719;BME280;38616;42.140;24.760;2023-11-18T09:00:52;98771.97;;;7.17;50.55
52719;BME280;38616;42.140;24.760;2023-11-18T09:03:25;98789.72;;;7.33;51.53
52719;BME280;38616;42.140;24.760;2023-11-18T09:06:12;98751.66;;;7.24;50.66
52719;BME280;38616;42.140;24.760;2023-11-18T09:08:57;98772.13;;;7.36;50.29
52719;BME280;38616;42.140;24.760;2023-11-18T09:11:23;98790.00;;;7.27;50.49
52719;BME280;38616;42.140;24.760;2023-11-18T09:13:52;98766.22;;;7.29;50.41
52719;BME280;38616;42.140;24.760;2023-11-18T09:16:25;98728.03;;;7.46;50.16
52719;BME280;38616;42.140;24.760;2023-11-18T09:18:54;98761.25;;;7.46;50.58
52719;BME280;38616;42.140;24.760;2023-11-18T09:21:21;98743.19;;;7.42;50.33
52719;BME280;38616;42.140;24.760;2023-11-18T09:23:50;98771.28;;;7.41;50.13
52719;BME280;38616;42.140;24.760;2023-11-18T09:26:16;98713.78;;;7.30;49.92
52719;BME280;38616;42.140;24.760;2023-11-18T09:28:42;98779.19;;;7.27;50.28
52719;BME280;38616;42.140;24.760;2023-11-18T09:31:10;98773.72;;;7.37;50.88
52719;BME280;38616;42.140;24.760;2023-11-18T09:33:41;98764.16;;;7.55;50.24
52719;BME280;38616;42.140;24.760;2023-11-18T09:36:12;98752.28;;;7.51;50.80
52719;BME280;38616;42.140;24.760;2023-11-18T09:38:39;98746.81;;;7.61;50.68
52719;BME280;38616;42.140;24.760;2023-11-18T09:41:09;98729.25;;;7.64;50.24
52719;BME280;38616;42.140;24.760;2023-11-18T09:43:38;98749.69;;;7.41;49.21
52719;BME280;38616;42.140;24.760;2023-11-18T09:46:27;98762.94;;;7.37;49.75
52719;BME280;38616;42.140;24.760;2023-11-18T09:49:21;98776.16;;;7.44;50.54
52719;BME280;38616;42.140;24.760;2023-11-18T09:51:56;98695.81;;;7.49;50.55
52719;BME280;38616;42.140;24.760;2023-11-18T09:57:15;98706.47;;;7.35;50.20
52719;BME280;38616;42.140;24.760;2023-11-18T10:00:03;98746.75;;;7.32;50.51
52719;BME280;38616;42.140;24.760;2023-11-18T10:02:48;98747.53;;;7.37;50.42
52719;BME280;38616;42.140;24.760;2023-11-18T10:05:16;98744.56;;;7.34;51.22
52719;BME280;38616;42.140;24.760;2023-11-18T10:07:48;98722.28;;;7.52;50.34
52719;BME280;38616;42.140;24.760;2023-11-18T10:10:14;98716.19;;;7.36;49.88
52719;BME280;38616;42.140;24.760;2023-11-18T10:12:45;98720.59;;;7.62;49.97
52719;BME280;38616;42.140;24.760;2023-11-18T10:15:13;98684.22;;;7.49;49.30
52719;BME280;38616;42.140;24.760;2023-11-18T10:17:42;98715.88;;;7.43;49.63
52719;BME280;38616;42.140;24.760;2023-11-18T10:23:08;98741.41;;;7.61;49.77
52719;BME280;38616;42.140;24.760;2023-11-18T10:25:46;98717.00;;;7.72;49.45
52719;BME280;38616;42.140;24.760;2023-11-18T10:28:30;98728.41;;;7.63;49.68
52719;BME280;38616;42.140;24.760;2023-11-18T10:31:03;98732.06;;;7.48;49.80
52719;BME280;38616;42.140;24.760;2023-11-18T10:33:39;98719.56;;;7.58;50.39
52719;BME280;38616;42.140;24.760;2023-11-18T10:36:18;98674.69;;;7.57;50.08
52719;BME280;38616;42.140;24.760;2023-11-18T10:38:51;98697.56;;;7.69;50.25
52719;BME280;38616;42.140;24.760;2023-11-18T10:41:20;98706.41;;;7.80;49.82
52719;BME280;38616;42.140;24.760;2023-11-18T10:43:46;98702.66;;;7.76;50.01
52719;BME280;38616;42.140;24.760;2023-11-18T10:46:14;98681.78;;;7.82;49.76
52719;BME280;38616;42.140;24.760;2023-11-18T10:48:49;98702.03;;;7.84;49.32
52719;BME280;38616;42.140;24.760;2023-11-18T10:51:20;98702.34;;;7.78;49.38
52719;BME280;38616;42.140;24.760;2023-11-18T10:53:50;98712.28;;;7.88;49.03
52719;BME280;38616;42.140;24.760;2023-11-18T10:56:24;98702.53;;;7.92;48.53
52719;BME280;38616;42.140;24.760;2023-11-18T10:58:56;98677.53;;;8.00;49.11
52719;BME280;38616;42.140;24.760;2023-11-18T11:01:33;98716.34;;;8.14;48.49
52719;BME280;38616;42.140;24.760;2023-11-18T11:04:00;98716.28;;;7.95;48.40
52719;BME280;38616;42.140;24.760;2023-11-18T11:06:30;98697.56;;;8.28;48.66
52719;BME280;38616;42.140;24.760;2023-11-18T11:08:57;98720.56;;;8.26;48.25
52719;BME280;38616;42.140;24.760;2023-11-18T11:11:39;98698.13;;;8.25;47.93
52719;BME280;38616;42.140;24.760;2023-11-18T11:14:06;98702.59;;;7.81;48.87
52719;BME280;38616;42.140;24.760;2023-11-18T11:16:40;98743.69;;;7.83;48.15
52719;BME280;38616;42.140;24.760;2023-11-18T11:19:24;98712.34;;;7.82;48.65
52719;BME280;38616;42.140;24.760;2023-11-18T11:22:07;98713.34;;;7.92;48.57
52719;BME280;38616;42.140;24.760;2023-11-18T11:27:41;98688.03;;;7.77;48.28
52719;BME280;38616;42.140;24.760;2023-11-18T11:30:28;98696.38;;;7.81;48.64
52719;BME280;38616;42.140;24.760;2023-11-18T11:36:11;98752.00;;;7.58;48.83
52719;BME280;38616;42.140;24.760;2023-11-18T11:38:37;98713.53;;;7.66;48.68
52719;BME280;38616;42.140;24.760;2023-11-18T11:41:04;98725.41;;;7.70;48.22
52719;BME280;38616;42.140;24.760;2023-11-18T11:43:32;98754.41;;;7.59;48.58
52719;BME280;38616;42.140;24.760;2023-11-18T11:46:01;98750.31;;;7.67;48.80
52719;BME280;38616;42.140;24.760;2023-11-18T11:48:35;98704.66;;;7.95;47.72
52719;BME280;38616;42.140;24.760;2023-11-18T11:51:22;98737.94;;;7.90;47.88
52719;BME280;38616;42.140;24.760;2023-11-18T11:54:12;98734.69;;;7.93;48.07
52719;BME280;38616;42.140;24.760;2023-11-18T11:56:44;98724.19;;;7.87;47.65
52719;BME280;38616;42.140;24.760;2023-11-18T12:02:13;98731.41;;;7.96;47.15
52719;BME280;38616;42.140;24.760;2023-11-18T12:04:44;98725.66;;;8.03;47.38
52719;BME280;38616;42.140;24.760;2023-11-18T12:07:10;98753.28;;;8.00;47.81
52719;BME280;38616;42.140;24.760;2023-11-18T12:09:40;98738.06;;;7.75;48.06
52719;BME280;38616;42.140;24.760;2023-11-18T12:12:18;98709.72;;;7.72;48.08
52719;BME280;38616;42.140;24.760;2023-11-18T12:14:52;98744.28;;;7.75;47.92
52719;BME280;38616;42.140;24.760;2023-11-18T12:17:18;98698.94;;;7.67;48.45
52719;BME280;38616;42.140;24.760;2023-11-18T12:19:48;98751.09;;;7.67;48.00
52719;BME280;38616;42.140;24.760;2023-11-18T12:22:19;98770.84;;;7.68;48.12
52719;BME280;38616;42.140;24.760;2023-11-18T12:30:26;98743.91;;;7.52;48.06
52719;BME280;38616;42.140;24.760;2023-11-18T12:33:03;98733.97;;;7.48;48.69
52719;BME280;38616;42.140;24.760;2023-11-18T12:36:03;98776.97;;;7.39;48.87
52719;BME280;38616;42.140;24.760;2023-11-18T12:41:43;98723.50;;;7.31;48.71
52719;BME280;38616;42.140;24.760;2023-11-18T12:44:30;98741.63;;;7.30;49.11
52719;BME280;38616;42.140;24.760;2023-11-18T12:47:03;98737.88;;;7.26;48.88
52719;BME280;38616;42.140;24.760;2023-11-18T12:49:42;98745.41;;;7.29;49.22
52719;BME280;38616;42.140;24.760;2023-11-18T12:52:10;98742.44;;;7.31;49.64
52719;BME280;38616;42.140;24.760;2023-11-18T12:54:36;98750.41;;;7.51;48.84
52719;BME280;38616;42.140;24.760;2023-11-18T12:57:03;98745.16;;;7.25;49.41
52719;BME280;38616;42.140;24.760;2023-11-18T12:59:34;98759.63;;;7.45;49.37
52719;BME280;38616;42.140;24.760;2023-11-18T13:01:59;98755.28;;;7.49;48.72
52719;BME280;38616;42.140;24.760;2023-11-18T13:04:30;98759.19;;;7.28;49.30
52719;BME280;38616;42.140;24.760;2023-11-18T13:06:56;98731.97;;;7.19;49.26
52719;BME280;38616;42.140;24.760;2023-11-18T13:09:23;98761.97;;;7.12;49.65
52719;BME280;38616;42.140;24.760;2023-11-18T13:12:00;98749.84;;;7.09;49.96
52719;BME280;38616;42.140;24.760;2023-11-18T13:14:31;98790.16;;;6.90;49.85
52719;BME280;38616;42.140;24.760;2023-11-18T13:17:09;98788.63;;;6.63;50.66
52719;BME280;38616;42.140;24.760;2023-11-18T13:19:37;98768.44;;;6.35;52.29
52719;BME280;38616;42.140;24.760;2023-11-18T13:22:04;98767.91;;;6.33;50.44
52719;BME280;38616;42.140;24.760;2023-11-18T13:24:32;98761.22;;;6.15;50.91
52719;BME280;38616;42.140;24.760;2023-11-18T13:26:59;98792.19;;;6.23;52.01
52719;BME280;38616;42.140;24.760;2023-11-18T13:29:30;98783.56;;;6.36;52.12
52719;BME280;38616;42.140;24.760;2023-11-18T13:31:56;98801.41;;;7.13;50.77
52719;BME280;38616;42.140;24.760;2023-11-18T13:34:23;98800.81;;;7.21;49.24